sensor_id;sensor_type;location;lat;lon;timestamp;P1;durP1;ratioP1;P2;durP2;ratioP2
71639;SDS011;60912;48.968;10.124;2022-07-03T00:00:43;5.83;;;4.70;;
71639;SDS011;60912;48.968;10.124;2022-07-03T00:03:09;7.97;;;4.80;;
71639;SDS011;60912;48.968;10.124;2022-07-03T00:05:34;7.67;;;4.93;;
71639;SDS011;60912;48.968;10.124;2022-07-03T00:08:02;8.95;;;5.20;;
71639;SDS011;60912;48.968;10.124;2022-07-03T00:10:28;14.32;;;5.85;;
71639;SDS011;60912;48.968;10.124;2022-07-03T00:12:53;6.83;;;5.63;;
71639;SDS011;60912;48.968;10.124;2022-07-03T00:15:19;8.07;;;5.73;;
71639;SDS011;60912;48.968;10.124;2022-07-03T00:17:44;8.07;;;6.40;;
71639;SDS011;60912;48.968;10.124;2022-07-03T00:20:11;12.25;;;6.68;;
71639;SDS011;60912;48.968;10.124;2022-07-03T00:22:37;10.80;;;6.90;;
71639;SDS011;60912;48.968;10.124;2022-07-03T00:25:06;11.68;;;7.93;;
71639;SDS011;60912;48.968;10.124;2022-07-03T00:27:32;10.00;;;7.13;;
71639;SDS011;60912;48.968;10.124;2022-07-03T00:30:00;10.25;;;6.65;;
71639;SDS011;60912;48.968;10.124;2022-07-03T00:32:26;8.03;;;6.00;;
71639;SDS011;60912;48.968;10.124;2022-07-03T00:34:54;8.63;;;5.70;;
71639;SDS011;60912;48.968;10.124;2022-07-03T00:37:20;9.38;;;5.32;;
71639;SDS011;60912;48.968;10.124;2022-07-03T00:39:46;8.38;;;4.60;;
71639;SDS011;60912;48.968;10.124;2022-07-03T00:42:13;5.80;;;4.28;;
71639;SDS011;60912;48.968;10.124;2022-07-03T00:44:57;7.10;;;4.27;;
71639;SDS011;60912;48.968;10.124;2022-07-03T00:47:25;6.18;;;4.30;;
71639;SDS011;60912;48.968;10.124;2022-07-03T00:49:52;5.80;;;4.30;;
71639;SDS011;60912;48.968;10.124;2022-07-03T00:52:19;6.87;;;3.80;;
71639;SDS011;60912;48.968;10.124;2022-07-03T00:54:54;6.03;;;4.10;;
71639;SDS011;60912;48.968;10.124;2022-07-03T00:57:21;7.20;;;4.15;;
71639;SDS011;60912;48.968;10.124;2022-07-03T00:59:48;5.80;;;3.90;;
71639;SDS011;60912;48.968;10.124;2022-07-03T01:02:18;5.57;;;3.97;;
71639;SDS011;60912;48.968;10.124;2022-07-03T01:05:02;9.97;;;4.43;;
71639;SDS011;60912;48.968;10.124;2022-07-03T01:07:52;5.03;;;3.70;;
71639;SDS011;60912;48.968;10.124;2022-07-03T01:18:48;4.70;;;3.30;;
71639;SDS011;60912;48.968;10.124;2022-07-03T01:21:17;6.78;;;3.50;;
71639;SDS011;60912;48.968;10.124;2022-07-03T01:26:53;6.22;;;3.30;;
71639;SDS011;60912;48.968;10.124;2022-07-03T01:29:31;6.95;;;3.30;;
71639;SDS011;60912;48.968;10.124;2022-07-03T01:32:03;6.90;;;3.37;;
71639;SDS011;60912;48.968;10.124;2022-07-03T01:34:33;5.43;;;3.05;;
71639;SDS011;60912;48.968;10.124;2022-07-03T01:37:02;5.25;;;3.13;;
71639;SDS011;60912;48.968;10.124;2022-07-03T01:39:29;5.03;;;2.90;;
71639;SDS011;60912;48.968;10.124;2022-07-03T01:41:56;7.30;;;3.22;;
71639;SDS011;60912;48.968;10.124;2022-07-03T01:44:25;5.77;;;2.80;;
71639;SDS011;60912;48.968;10.124;2022-07-03T01:46:53;6.00;;;3.25;;
71639;SDS011;60912;48.968;10.124;2022-07-03T01:49:21;6.75;;;2.88;;
71639;SDS011;60912;48.968;10.124;2022-07-03T01:51:48;5.78;;;2.70;;
71639;SDS011;60912;48.968;10.124;2022-07-03T01:54:15;4.78;;;2.60;;
71639;SDS011;60912;48.968;10.124;2022-07-03T01:56:42;5.30;;;2.87;;
71639;SDS011;60912;48.968;10.124;2022-07-03T01:59:09;4.68;;;2.50;;
71639;SDS011;60912;48.968;10.124;2022-07-03T02:04:30;4.70;;;2.70;;
71639;SDS011;60912;48.968;10.124;2022-07-03T02:07:05;4.45;;;2.75;;
71639;SDS011;60912;48.968;10.124;2022-07-03T02:09:40;4.10;;;2.80;;
71639;SDS011;60912;48.968;10.124;2022-07-03T02:12:18;4.68;;;2.90;;
71639;SDS011;60912;48.968;10.124;2022-07-03T02:15:04;4.63;;;2.60;;
71639;SDS011;60912;48.968;10.124;2022-07-03T02:17:38;5.53;;;2.70;;
71639;SDS011;60912;48.968;10.124;2022-07-03T02:20:07;5.65;;;2.63;;
71639;SDS011;60912;48.968;10.124;2022-07-03T02:22:35;5.30;;;2.50;;
71639;SDS011;60912;48.968;10.124;2022-07-03T02:25:21;4.57;;;2.50;;
71639;SDS011;60912;48.968;10.124;2022-07-03T02:27:55;4.25;;;2.60;;
71639;SDS011;60912;48.968;10.124;2022-07-03T02:30:28;5.85;;;2.80;;
71639;SDS011;60912;48.968;10.124;2022-07-03T02:32:55;5.60;;;2.60;;
71639;SDS011;60912;48.968;10.124;2022-07-03T02:46:15;4.15;;;2.70;;
71639;SDS011;60912;48.968;10.124;2022-07-03T02:54:43;7.20;;;2.80;;
71639;SDS011;60912;48.968;10.124;2022-07-03T02:57:16;4.63;;;2.60;;
71639;SDS011;60912;48.968;10.124;2022-07-03T03:00:03;6.90;;;2.85;;
71639;SDS011;60912;48.968;10.124;2022-07-03T03:10:25;6.72;;;2.40;;
71639;SDS011;60912;48.968;10.124;2022-07-03T03:15:55;4.60;;;2.70;;
71639;SDS011;60912;48.968;10.124;2022-07-03T03:18:27;5.05;;;2.40;;
71639;SDS011;60912;48.968;10.124;2022-07-03T03:20:55;5.75;;;2.80;;
71639;SDS011;60912;48.968;10.124;2022-07-03T03:23:44;5.63;;;2.53;;
71639;SDS011;60912;48.968;10.124;2022-07-03T03:28:48;4.10;;;2.55;;
71639;SDS011;60912;48.968;10.124;2022-07-03T03:31:16;6.90;;;2.92;;
71639;SDS011;60912;48.968;10.124;2022-07-03T03:33:44;4.60;;;2.63;;
71639;SDS011;60912;48.968;10.124;2022-07-03T03:36:11;3.70;;;2.20;;
71639;SDS011;60912;48.968;10.124;2022-07-03T03:38:39;6.57;;;2.60;;
71639;SDS011;60912;48.968;10.124;2022-07-03T03:41:05;5.35;;;2.42;;
71639;SDS011;60912;48.968;10.124;2022-07-03T03:43:32;4.35;;;2.60;;
71639;SDS011;60912;48.968;10.124;2022-07-03T03:45:58;4.43;;;2.50;;
71639;SDS011;60912;48.968;10.124;2022-07-03T03:48:25;4.40;;;2.20;;
71639;SDS011;60912;48.968;10.124;2022-07-03T03:50:51;4.38;;;2.60;;
71639;SDS011;60912;48.968;10.124;2022-07-03T03:53:17;3.95;;;2.08;;
71639;SDS011;60912;48.968;10.124;2022-07-03T03:58:32;4.38;;;2.60;;
71639;SDS011;60912;48.968;10.124;2022-07-03T04:01:00;5.53;;;2.60;;
71639;SDS011;60912;48.968;10.124;2022-07-03T04:03:28;6.53;;;2.30;;
71639;SDS011;60912;48.968;10.124;2022-07-03T04:05:55;5.38;;;2.38;;
71639;SDS011;60912;48.968;10.124;2022-07-03T04:08:21;4.00;;;1.90;;
71639;SDS011;60912;48.968;10.124;2022-07-03T04:10:47;3.25;;;2.13;;
71639;SDS011;60912;48.968;10.124;2022-07-03T04:13:13;3.50;;;2.00;;
71639;SDS011;60912;48.968;10.124;2022-07-03T04:15:39;4.75;;;2.00;;
71639;SDS011;60912;48.968;10.124;2022-07-03T04:18:05;4.40;;;2.20;;
71639;SDS011;60912;48.968;10.124;2022-07-03T04:20:31;3.97;;;2.00;;
71639;SDS011;60912;48.968;10.124;2022-07-03T04:22:58;4.47;;;1.90;;
71639;SDS011;60912;48.968;10.124;2022-07-03T04:25:24;3.67;;;2.00;;
71639;SDS011;60912;48.968;10.124;2022-07-03T04:27:49;6.35;;;1.80;;
71639;SDS011;60912;48.968;10.124;2022-07-03T04:30:15;3.63;;;2.00;;
71639;SDS011;60912;48.968;10.124;2022-07-03T04:32:41;7.40;;;2.10;;
71639;SDS011;60912;48.968;10.124;2022-07-03T04:35:06;7.25;;;2.00;;
71639;SDS011;60912;48.968;10.124;2022-07-03T04:37:32;3.90;;;1.90;;
71639;SDS011;60912;48.968;10.124;2022-07-03T04:39:57;6.20;;;2.20;;
71639;SDS011;60912;48.968;10.124;2022-07-03T04:42:23;4.07;;;1.80;;
71639;SDS011;60912;48.968;10.124;2022-07-03T04:44:48;3.37;;;1.57;;
71639;SDS011;60912;48.968;10.124;2022-07-03T04:47:14;4.13;;;1.90;;
71639;SDS011;60912;48.968;10.124;2022-07-03T04:49:40;4.72;;;1.85;;
71639;SDS011;60912;48.968;10.124;2022-07-03T04:52:09;4.60;;;1.50;;
71639;SDS011;60912;48.968;10.124;2022-07-03T04:54:34;5.20;;;1.50;;
71639;SDS011;60912;48.968;10.124;2022-07-03T04:57:01;4.78;;;1.90;;
71639;SDS011;60912;48.968;10.124;2022-07-03T04:59:26;2.40;;;1.50;;
71639;SDS011;60912;48.968;10.124;2022-07-03T05:01:52;3.37;;;1.77;;
71639;SDS011;60912;48.968;10.124;2022-07-03T05:04:17;6.80;;;1.60;;
71639;SDS011;60912;48.968;10.124;2022-07-03T05:06:43;4.35;;;1.52;;
71639;SDS011;60912;48.968;10.124;2022-07-03T05:09:08;3.50;;;1.30;;
71639;SDS011;60912;48.968;10.124;2022-07-03T05:11:34;3.73;;;1.60;;
71639;SDS011;60912;48.968;10.124;2022-07-03T05:14:00;3.35;;;1.73;;
71639;SDS011;60912;48.968;10.124;2022-07-03T05:16:26;3.53;;;1.60;;
71639;SDS011;60912;48.968;10.124;2022-07-03T05:18:51;6.10;;;1.70;;
71639;SDS011;60912;48.968;10.124;2022-07-03T05:21:17;4.00;;;1.40;;
71639;SDS011;60912;48.968;10.124;2022-07-03T05:23:42;4.37;;;1.33;;
71639;SDS011;60912;48.968;10.124;2022-07-03T05:26:07;3.77;;;1.50;;
71639;SDS011;60912;48.968;10.124;2022-07-03T05:28:33;4.93;;;1.48;;
71639;SDS011;60912;48.968;10.124;2022-07-03T05:30:58;4.93;;;1.57;;
71639;SDS011;60912;48.968;10.124;2022-07-03T05:33:24;3.77;;;1.30;;
71639;SDS011;60912;48.968;10.124;2022-07-03T05:35:49;4.10;;;1.43;;
71639;SDS011;60912;48.968;10.124;2022-07-03T05:38:15;3.00;;;1.20;;
71639;SDS011;60912;48.968;10.124;2022-07-03T05:41:01;2.80;;;1.17;;
71639;SDS011;60912;48.968;10.124;2022-07-03T05:43:26;2.97;;;1.10;;
71639;SDS011;60912;48.968;10.124;2022-07-03T05:45:51;7.37;;;1.43;;
71639;SDS011;60912;48.968;10.124;2022-07-03T05:48:17;2.80;;;1.23;;
71639;SDS011;60912;48.968;10.124;2022-07-03T05:50:42;2.77;;;1.30;;
71639;SDS011;60912;48.968;10.124;2022-07-03T05:53:08;5.47;;;1.40;;
71639;SDS011;60912;48.968;10.124;2022-07-03T05:55:33;3.05;;;1.20;;
71639;SDS011;60912;48.968;10.124;2022-07-03T05:57:58;5.33;;;1.33;;
71639;SDS011;60912;48.968;10.124;2022-07-03T06:00:24;3.83;;;1.30;;
71639;SDS011;60912;48.968;10.124;2022-07-03T06:02:49;2.47;;;1.30;;
71639;SDS011;60912;48.968;10.124;2022-07-03T06:05:14;2.67;;;1.30;;
71639;SDS011;60912;48.968;10.124;2022-07-03T06:07:40;5.93;;;1.40;;
71639;SDS011;60912;48.968;10.124;2022-07-03T06:10:05;3.55;;;1.20;;
71639;SDS011;60912;48.968;10.124;2022-07-03T06:12:31;3.60;;;1.40;;
71639;SDS011;60912;48.968;10.124;2022-07-03T06:14:56;2.47;;;1.13;;
71639;SDS011;60912;48.968;10.124;2022-07-03T06:17:22;2.72;;;1.13;;
71639;SDS011;60912;48.968;10.124;2022-07-03T06:19:47;3.03;;;1.00;;
71639;SDS011;60912;48.968;10.124;2022-07-03T06:22:12;4.00;;;1.37;;
71639;SDS011;60912;48.968;10.124;2022-07-03T06:24:38;3.07;;;1.10;;
71639;SDS011;60912;48.968;10.124;2022-07-03T06:27:03;2.70;;;1.20;;
71639;SDS011;60912;48.968;10.124;2022-07-03T06:29:29;3.55;;;1.20;;
71639;SDS011;60912;48.968;10.124;2022-07-03T06:31:54;2.63;;;1.00;;
71639;SDS011;60912;48.968;10.124;2022-07-03T06:34:19;2.07;;;1.07;;
71639;SDS011;60912;48.968;10.124;2022-07-03T06:36:45;2.07;;;1.10;;
71639;SDS011;60912;48.968;10.124;2022-07-03T06:39:10;3.00;;;1.20;;
71639;SDS011;60912;48.968;10.124;2022-07-03T06:41:35;4.47;;;0.90;;
71639;SDS011;60912;48.968;10.124;2022-07-03T06:44:01;3.43;;;1.00;;
71639;SDS011;60912;48.968;10.124;2022-07-03T06:46:26;2.93;;;0.80;;
71639;SDS011;60912;48.968;10.124;2022-07-03T06:48:52;2.97;;;1.00;;
71639;SDS011;60912;48.968;10.124;2022-07-03T06:51:17;4.60;;;0.90;;
71639;SDS011;60912;48.968;10.124;2022-07-03T06:53:42;3.90;;;0.90;;
71639;SDS011;60912;48.968;10.124;2022-07-03T06:56:08;1.80;;;0.80;;
71639;SDS011;60912;48.968;10.124;2022-07-03T06:58:33;3.50;;;0.90;;
71639;SDS011;60912;48.968;10.124;2022-07-03T07:00:59;2.17;;;1.00;;
71639;SDS011;60912;48.968;10.124;2022-07-03T07:03:24;3.97;;;0.98;;
71639;SDS011;60912;48.968;10.124;2022-07-03T07:05:49;3.17;;;1.07;;
71639;SDS011;60912;48.968;10.124;2022-07-03T07:08:15;2.33;;;0.90;;
71639;SDS011;60912;48.968;10.124;2022-07-03T07:10:40;2.77;;;1.00;;
71639;SDS011;60912;48.968;10.124;2022-07-03T07:13:05;1.90;;;0.97;;
71639;SDS011;60912;48.968;10.124;2022-07-03T07:15:31;2.70;;;1.00;;
71639;SDS011;60912;48.968;10.124;2022-07-03T07:17:56;2.93;;;0.90;;
71639;SDS011;60912;48.968;10.124;2022-07-03T07:20:22;2.67;;;1.10;;
71639;SDS011;60912;48.968;10.124;2022-07-03T07:22:47;1.87;;;0.80;;
71639;SDS011;60912;48.968;10.124;2022-07-03T07:25:13;2.50;;;1.00;;
71639;SDS011;60912;48.968;10.124;2022-07-03T07:27:39;3.67;;;0.90;;
71639;SDS011;60912;48.968;10.124;2022-07-03T07:30:04;2.90;;;1.10;;
71639;SDS011;60912;48.968;10.124;2022-07-03T07:32:30;2.75;;;1.10;;
71639;SDS011;60912;48.968;10.124;2022-07-03T07:34:56;1.90;;;1.00;;
71639;SDS011;60912;48.968;10.124;2022-07-03T07:37:21;2.40;;;1.10;;
71639;SDS011;60912;48.968;10.124;2022-07-03T07:39:46;2.30;;;1.10;;
71639;SDS011;60912;48.968;10.124;2022-07-03T07:42:12;4.33;;;1.00;;
71639;SDS011;60912;48.968;10.124;2022-07-03T07:44:38;1.77;;;0.90;;
71639;SDS011;60912;48.968;10.124;2022-07-03T07:47:03;4.03;;;1.00;;
71639;SDS011;60912;48.968;10.124;2022-07-03T07:49:29;1.97;;;0.90;;
71639;SDS011;60912;48.968;10.124;2022-07-03T07:51:54;3.17;;;1.23;;
71639;SDS011;60912;48.968;10.124;2022-07-03T07:54:20;4.70;;;1.27;;
71639;SDS011;60912;48.968;10.124;2022-07-03T07:56:45;3.70;;;1.00;;
71639;SDS011;60912;48.968;10.124;2022-07-03T07:59:10;2.93;;;1.00;;
71639;SDS011;60912;48.968;10.124;2022-07-03T08:01:36;4.00;;;1.20;;
71639;SDS011;60912;48.968;10.124;2022-07-03T08:04:19;2.10;;;1.10;;
71639;SDS011;60912;48.968;10.124;2022-07-03T08:07:03;2.05;;;0.80;;
71639;SDS011;60912;48.968;10.124;2022-07-03T08:09:29;2.27;;;1.00;;
71639;SDS011;60912;48.968;10.124;2022-07-03T08:11:54;3.27;;;1.00;;
71639;SDS011;60912;48.968;10.124;2022-07-03T08:14:19;2.65;;;1.00;;
71639;SDS011;60912;48.968;10.124;2022-07-03T08:16:45;2.23;;;0.73;;
71639;SDS011;60912;48.968;10.124;2022-07-03T08:19:11;2.13;;;0.90;;
71639;SDS011;60912;48.968;10.124;2022-07-03T08:21:37;2.00;;;1.00;;
71639;SDS011;60912;48.968;10.124;2022-07-03T08:24:02;2.50;;;1.00;;
71639;SDS011;60912;48.968;10.124;2022-07-03T08:26:28;2.75;;;0.95;;
71639;SDS011;60912;48.968;10.124;2022-07-03T08:28:53;2.07;;;0.90;;
71639;SDS011;60912;48.968;10.124;2022-07-03T08:31:19;3.03;;;0.80;;
71639;SDS011;60912;48.968;10.124;2022-07-03T08:33:44;4.63;;;0.90;;
71639;SDS011;60912;48.968;10.124;2022-07-03T08:36:09;4.07;;;1.00;;
71639;SDS011;60912;48.968;10.124;2022-07-03T08:38:35;3.53;;;0.90;;
71639;SDS011;60912;48.968;10.124;2022-07-03T08:41:01;3.17;;;0.80;;
71639;SDS011;60912;48.968;10.124;2022-07-03T08:43:29;1.70;;;1.00;;
71639;SDS011;60912;48.968;10.124;2022-07-03T08:45:54;4.22;;;0.90;;
71639;SDS011;60912;48.968;10.124;2022-07-03T08:48:22;2.40;;;0.90;;
71639;SDS011;60912;48.968;10.124;2022-07-03T08:50:48;2.55;;;0.80;;
71639;SDS011;60912;48.968;10.124;2022-07-03T08:53:15;1.92;;;0.80;;
71639;SDS011;60912;48.968;10.124;2022-07-03T08:55:41;2.57;;;0.90;;
71639;SDS011;60912;48.968;10.124;2022-07-03T08:58:07;2.03;;;0.90;;
71639;SDS011;60912;48.968;10.124;2022-07-03T09:00:35;1.80;;;0.80;;
71639;SDS011;60912;48.968;10.124;2022-07-03T09:03:01;5.28;;;0.80;;
71639;SDS011;60912;48.968;10.124;2022-07-03T09:05:29;2.63;;;0.90;;
71639;SDS011;60912;48.968;10.124;2022-07-03T09:07:55;2.40;;;0.80;;
71639;SDS011;60912;48.968;10.124;2022-07-03T09:10:22;3.58;;;1.00;;
71639;SDS011;60912;48.968;10.124;2022-07-03T09:12:48;1.93;;;0.90;;
71639;SDS011;60912;48.968;10.124;2022-07-03T09:15:14;2.30;;;0.90;;
71639;SDS011;60912;48.968;10.124;2022-07-03T09:17:40;2.50;;;0.90;;
71639;SDS011;60912;48.968;10.124;2022-07-03T09:20:20;2.33;;;0.90;;
71639;SDS011;60912;48.968;10.124;2022-07-03T09:22:53;3.90;;;0.90;;
71639;SDS011;60912;48.968;10.124;2022-07-03T09:25:18;2.35;;;0.88;;
71639;SDS011;60912;48.968;10.124;2022-07-03T09:27:51;2.70;;;0.90;;
71639;SDS011;60912;48.968;10.124;2022-07-03T09:30:17;2.53;;;1.02;;
71639;SDS011;60912;48.968;10.124;2022-07-03T09:32:44;4.33;;;0.90;;
71639;SDS011;60912;48.968;10.124;2022-07-03T09:37:55;2.58;;;0.90;;
71639;SDS011;60912;48.968;10.124;2022-07-03T09:40:25;2.53;;;0.80;;
71639;SDS011;60912;48.968;10.124;2022-07-03T09:45:26;2.60;;;0.93;;
71639;SDS011;60912;48.968;10.124;2022-07-03T09:47:51;2.40;;;0.90;;
71639;SDS011;60912;48.968;10.124;2022-07-03T09:50:17;1.67;;;0.70;;
71639;SDS011;60912;48.968;10.124;2022-07-03T09:52:43;2.05;;;0.90;;
71639;SDS011;60912;48.968;10.124;2022-07-03T10:00:30;4.40;;;0.90;;
71639;SDS011;60912;48.968;10.124;2022-07-03T10:05:36;2.47;;;0.75;;
71639;SDS011;60912;48.968;10.124;2022-07-03T10:10:38;1.75;;;0.75;;
71639;SDS011;60912;48.968;10.124;2022-07-03T10:13:05;2.43;;;0.80;;
71639;SDS011;60912;48.968;10.124;2022-07-03T10:15:32;5.75;;;0.90;;
71639;SDS011;60912;48.968;10.124;2022-07-03T10:18:02;3.67;;;0.98;;
71639;SDS011;60912;48.968;10.124;2022-07-03T10:20:36;4.03;;;0.80;;
71639;SDS011;60912;48.968;10.124;2022-07-03T10:23:05;2.95;;;0.90;;
71639;SDS011;60912;48.968;10.124;2022-07-03T10:25:31;5.68;;;0.90;;
71639;SDS011;60912;48.968;10.124;2022-07-03T10:27:57;2.72;;;0.90;;
71639;SDS011;60912;48.968;10.124;2022-07-03T10:30:23;4.03;;;0.60;;
71639;SDS011;60912;48.968;10.124;2022-07-03T10:32:50;2.35;;;0.70;;
71639;SDS011;60912;48.968;10.124;2022-07-03T10:35:18;2.25;;;0.80;;
71639;SDS011;60912;48.968;10.124;2022-07-03T10:37:50;2.05;;;0.70;;
71639;SDS011;60912;48.968;10.124;2022-07-03T10:43:09;1.57;;;0.60;;
71639;SDS011;60912;48.968;10.124;2022-07-03T10:46:12;2.92;;;0.82;;
71639;SDS011;60912;48.968;10.124;2022-07-03T10:48:50;2.35;;;0.85;;
71639;SDS011;60912;48.968;10.124;2022-07-03T10:51:22;1.55;;;0.70;;
71639;SDS011;60912;48.968;10.124;2022-07-03T10:53:48;2.38;;;0.80;;
71639;SDS011;60912;48.968;10.124;2022-07-03T10:56:14;1.63;;;0.60;;
71639;SDS011;60912;48.968;10.124;2022-07-03T10:58:57;2.45;;;0.75;;
71639;SDS011;60912;48.968;10.124;2022-07-03T11:01:30;1.73;;;0.80;;
71639;SDS011;60912;48.968;10.124;2022-07-03T11:04:01;3.63;;;0.80;;
71639;SDS011;60912;48.968;10.124;2022-07-03T11:09:14;2.20;;;0.80;;
71639;SDS011;60912;48.968;10.124;2022-07-03T11:11:44;1.95;;;0.80;;
71639;SDS011;60912;48.968;10.124;2022-07-03T11:14:20;2.63;;;0.90;;
71639;SDS011;60912;48.968;10.124;2022-07-03T11:16:46;2.60;;;0.70;;
71639;SDS011;60912;48.968;10.124;2022-07-03T11:19:12;3.53;;;1.00;;
71639;SDS011;60912;48.968;10.124;2022-07-03T11:21:39;1.80;;;0.73;;
71639;SDS011;60912;48.968;10.124;2022-07-03T11:24:19;2.40;;;0.90;;
71639;SDS011;60912;48.968;10.124;2022-07-03T11:27:13;4.60;;;0.73;;
71639;SDS011;60912;48.968;10.124;2022-07-03T11:29:53;2.38;;;0.80;;
71639;SDS011;60912;48.968;10.124;2022-07-03T11:40:52;3.03;;;0.85;;
71639;SDS011;60912;48.968;10.124;2022-07-03T11:43:19;2.00;;;0.70;;
71639;SDS011;60912;48.968;10.124;2022-07-03T11:45:48;1.67;;;0.77;;
71639;SDS011;60912;48.968;10.124;2022-07-03T11:48:22;2.60;;;0.70;;
71639;SDS011;60912;48.968;10.124;2022-07-03T11:50:49;4.15;;;0.75;;
71639;SDS011;60912;48.968;10.124;2022-07-03T11:53:16;2.22;;;0.80;;
71639;SDS011;60912;48.968;10.124;2022-07-03T11:58:13;2.73;;;1.57;;
71639;SDS011;60912;48.968;10.124;2022-07-03T12:00:38;2.22;;;0.90;;
71639;SDS011;60912;48.968;10.124;2022-07-03T12:03:03;1.60;;;0.80;;
71639;SDS011;60912;48.968;10.124;2022-07-03T12:05:29;6.35;;;0.93;;
71639;SDS011;60912;48.968;10.124;2022-07-03T12:08:04;1.97;;;0.83;;
71639;SDS011;60912;48.968;10.124;2022-07-03T12:10:40;1.90;;;0.68;;
71639;SDS011;60912;48.968;10.124;2022-07-03T12:13:18;6.78;;;1.15;;
71639;SDS011;60912;48.968;10.124;2022-07-03T12:15:45;2.10;;;0.83;;
71639;SDS011;60912;48.968;10.124;2022-07-03T12:18:11;1.23;;;0.60;;
71639;SDS011;60912;48.968;10.124;2022-07-03T12:20:36;5.73;;;1.13;;
71639;SDS011;60912;48.968;10.124;2022-07-03T12:23:01;1.80;;;0.70;;
71639;SDS011;60912;48.968;10.124;2022-07-03T12:25:29;1.67;;;0.70;;
71639;SDS011;60912;48.968;10.124;2022-07-03T12:27:55;1.98;;;0.85;;
71639;SDS011;60912;48.968;10.124;2022-07-03T12:30:21;1.87;;;0.60;;
71639;SDS011;60912;48.968;10.124;2022-07-03T12:32:50;2.90;;;0.70;;
71639;SDS011;60912;48.968;10.124;2022-07-03T12:35:20;1.95;;;0.70;;
71639;SDS011;60912;48.968;10.124;2022-07-03T12:37:46;1.92;;;0.68;;
71639;SDS011;60912;48.968;10.124;2022-07-03T12:40:13;3.27;;;0.87;;
71639;SDS011;60912;48.968;10.124;2022-07-03T12:42:43;4.40;;;0.70;;
71639;SDS011;60912;48.968;10.124;2022-07-03T12:45:10;2.87;;;0.80;;
71639;SDS011;60912;48.968;10.124;2022-07-03T12:47:37;1.60;;;0.80;;
71639;SDS011;60912;48.968;10.124;2022-07-03T12:50:03;1.93;;;0.70;;
71639;SDS011;60912;48.968;10.124;2022-07-03T12:52:30;3.15;;;0.80;;
71639;SDS011;60912;48.968;10.124;2022-07-03T12:54:57;1.63;;;0.73;;
71639;SDS011;60912;48.968;10.124;2022-07-03T12:57:25;2.85;;;0.60;;
71639;SDS011;60912;48.968;10.124;2022-07-03T13:00:11;6.15;;;0.60;;
71639;SDS011;60912;48.968;10.124;2022-07-03T13:02:41;2.87;;;0.70;;
71639;SDS011;60912;48.968;10.124;2022-07-03T13:05:18;2.92;;;0.60;;
71639;SDS011;60912;48.968;10.124;2022-07-03T13:07:46;1.83;;;0.60;;
71639;SDS011;60912;48.968;10.124;2022-07-03T13:10:16;1.50;;;0.63;;
71639;SDS011;60912;48.968;10.124;2022-07-03T13:12:49;2.28;;;0.80;;
71639;SDS011;60912;48.968;10.124;2022-07-03T13:15:18;3.17;;;0.70;;
71639;SDS011;60912;48.968;10.124;2022-07-03T13:20:19;3.72;;;0.70;;
71639;SDS011;60912;48.968;10.124;2022-07-03T13:23:05;1.50;;;0.60;;
71639;SDS011;60912;48.968;10.124;2022-07-03T13:25:32;2.10;;;0.80;;
71639;SDS011;60912;48.968;10.124;2022-07-03T13:28:09;2.10;;;0.70;;
71639;SDS011;60912;48.968;10.124;2022-07-03T13:30:37;2.75;;;0.70;;
71639;SDS011;60912;48.968;10.124;2022-07-03T13:33:03;3.15;;;0.70;;
71639;SDS011;60912;48.968;10.124;2022-07-03T13:35:29;1.65;;;0.70;;
71639;SDS011;60912;48.968;10.124;2022-07-03T13:37:54;1.63;;;0.70;;
71639;SDS011;60912;48.968;10.124;2022-07-03T13:40:20;3.50;;;0.70;;
71639;SDS011;60912;48.968;10.124;2022-07-03T13:42:46;3.30;;;0.80;;
71639;SDS011;60912;48.968;10.124;2022-07-03T13:45:11;3.57;;;0.70;;
71639;SDS011;60912;48.968;10.124;2022-07-03T13:47:36;2.78;;;0.90;;
71639;SDS011;60912;48.968;10.124;2022-07-03T13:50:02;2.03;;;0.60;;
71639;SDS011;60912;48.968;10.124;2022-07-03T13:52:29;1.52;;;0.68;;
71639;SDS011;60912;48.968;10.124;2022-07-03T13:54:54;2.30;;;1.00;;
71639;SDS011;60912;48.968;10.124;2022-07-03T13:57:20;1.58;;;0.70;;
71639;SDS011;60912;48.968;10.124;2022-07-03T13:59:45;3.40;;;0.70;;
71639;SDS011;60912;48.968;10.124;2022-07-03T14:02:12;5.15;;;0.80;;
71639;SDS011;60912;48.968;10.124;2022-07-03T14:04:37;1.50;;;0.60;;
71639;SDS011;60912;48.968;10.124;2022-07-03T14:07:03;1.50;;;0.70;;
71639;SDS011;60912;48.968;10.124;2022-07-03T14:09:29;3.13;;;0.70;;
71639;SDS011;60912;48.968;10.124;2022-07-03T14:11:54;1.23;;;0.60;;
71639;SDS011;60912;48.968;10.124;2022-07-03T14:14:19;2.33;;;0.80;;
71639;SDS011;60912;48.968;10.124;2022-07-03T14:16:45;1.53;;;0.70;;
71639;SDS011;60912;48.968;10.124;2022-07-03T14:19:10;2.40;;;0.80;;
71639;SDS011;60912;48.968;10.124;2022-07-03T14:21:37;1.80;;;0.70;;
71639;SDS011;60912;48.968;10.124;2022-07-03T14:24:03;1.80;;;0.70;;
71639;SDS011;60912;48.968;10.124;2022-07-03T14:26:28;3.47;;;0.90;;
71639;SDS011;60912;48.968;10.124;2022-07-03T14:29:17;1.73;;;0.85;;
71639;SDS011;60912;48.968;10.124;2022-07-03T14:32:02;3.67;;;0.80;;
71639;SDS011;60912;48.968;10.124;2022-07-03T14:34:46;2.47;;;0.70;;
71639;SDS011;60912;48.968;10.124;2022-07-03T14:37:11;2.30;;;0.90;;
71639;SDS011;60912;48.968;10.124;2022-07-03T14:39:37;2.28;;;0.77;;
71639;SDS011;60912;48.968;10.124;2022-07-03T14:42:02;1.30;;;0.70;;
71639;SDS011;60912;48.968;10.124;2022-07-03T14:44:28;1.70;;;0.77;;
71639;SDS011;60912;48.968;10.124;2022-07-03T14:46:54;2.38;;;0.80;;
71639;SDS011;60912;48.968;10.124;2022-07-03T14:49:20;2.77;;;0.80;;
71639;SDS011;60912;48.968;10.124;2022-07-03T14:51:45;2.15;;;0.70;;
71639;SDS011;60912;48.968;10.124;2022-07-03T14:54:12;3.53;;;0.80;;
71639;SDS011;60912;48.968;10.124;2022-07-03T14:56:44;3.20;;;0.77;;
71639;SDS011;60912;48.968;10.124;2022-07-03T14:59:15;1.38;;;0.70;;
71639;SDS011;60912;48.968;10.124;2022-07-03T15:01:49;3.72;;;0.70;;
71639;SDS011;60912;48.968;10.124;2022-07-03T15:04:20;2.20;;;0.80;;
71639;SDS011;60912;48.968;10.124;2022-07-03T15:06:58;2.38;;;0.80;;
71639;SDS011;60912;48.968;10.124;2022-07-03T15:09:28;2.50;;;0.83;;
71639;SDS011;60912;48.968;10.124;2022-07-03T15:11:58;2.08;;;0.80;;
71639;SDS011;60912;48.968;10.124;2022-07-03T15:14:45;1.67;;;0.70;;
71639;SDS011;60912;48.968;10.124;2022-07-03T15:17:13;2.10;;;0.88;;
71639;SDS011;60912;48.968;10.124;2022-07-03T15:19:40;2.05;;;0.80;;
71639;SDS011;60912;48.968;10.124;2022-07-03T15:22:08;1.47;;;0.57;;
71639;SDS011;60912;48.968;10.124;2022-07-03T15:24:37;2.47;;;0.95;;
71639;SDS011;60912;48.968;10.124;2022-07-03T15:27:05;2.33;;;0.80;;
71639;SDS011;60912;48.968;10.124;2022-07-03T15:29:31;2.92;;;0.80;;
71639;SDS011;60912;48.968;10.124;2022-07-03T15:32:00;2.43;;;0.83;;
71639;SDS011;60912;48.968;10.124;2022-07-03T15:34:29;1.98;;;0.82;;
71639;SDS011;60912;48.968;10.124;2022-07-03T15:39:48;2.05;;;0.77;;
71639;SDS011;60912;48.968;10.124;2022-07-03T15:42:20;1.87;;;0.73;;
71639;SDS011;60912;48.968;10.124;2022-07-03T15:45:03;1.65;;;0.90;;
71639;SDS011;60912;48.968;10.124;2022-07-03T15:51:03;1.80;;;0.80;;
71639;SDS011;60912;48.968;10.124;2022-07-03T15:53:38;2.78;;;0.77;;
71639;SDS011;60912;48.968;10.124;2022-07-03T15:56:05;3.07;;;1.00;;
71639;SDS011;60912;48.968;10.124;2022-07-03T15:58:34;4.55;;;0.75;;
71639;SDS011;60912;48.968;10.124;2022-07-03T16:01:05;2.92;;;0.80;;
71639;SDS011;60912;48.968;10.124;2022-07-03T16:03:54;3.50;;;0.90;;
71639;SDS011;60912;48.968;10.124;2022-07-03T16:06:27;1.85;;;0.70;;
71639;SDS011;60912;48.968;10.124;2022-07-03T16:08:54;1.27;;;0.60;;